sensor_id;sensor_type;location;lat;lon;timestamp;temperature;humidity
7814;DHT22;3952;48.364;16.022;2022-08-21T00:01:20;18.80;99.90
7814;DHT22;3952;48.364;16.022;2022-08-21T00:03:49;18.80;99.90
7814;DHT22;3952;48.364;16.022;2022-08-21T00:06:17;18.80;99.90
7814;DHT22;3952;48.364;16.022;2022-08-21T00:08:44;18.80;99.90
7814;DHT22;3952;48.364;16.022;2022-08-21T00:11:12;18.70;99.90
7814;DHT22;3952;48.364;16.022;2022-08-21T00:13:40;18.70;99.90
7814;DHT22;3952;48.364;16.022;2022-08-21T00:16:07;18.70;99.90
7814;DHT22;3952;48.364;16.022;2022-08-21T00:18:34;18.70;99.90
7814;DHT22;3952;48.364;16.022;2022-08-21T00:21:04;18.70;99.90
7814;DHT22;3952;48.364;16.022;2022-08-21T00:23:33;18.70;99.90
7814;DHT22;3952;48.364;16.022;2022-08-21T00:26:01;18.70;99.90
7814;DHT22;3952;48.364;16.022;2022-08-21T00:28:28;18.70;99.90
7814;DHT22;3952;48.364;16.022;2022-08-21T00:30:56;18.70;99.90
7814;DHT22;3952;48.364;16.022;2022-08-21T00:33:23;18.70;99.90
7814;DHT22;3952;48.364;16.022;2022-08-21T00:35:51;18.70;99.90
7814;DHT22;3952;48.364;16.022;2022-08-21T00:38:20;18.70;99.90
7814;DHT22;3952;48.364;16.022;2022-08-21T00:40:51;18.70;99.90
7814;DHT22;3952;48.364;16.022;2022-08-21T00:43:21;18.70;99.90
7814;DHT22;3952;48.364;16.022;2022-08-21T00:45:50;18.70;99.90
7814;DHT22;3952;48.364;16.022;2022-08-21T00:48:17;18.70;99.90
7814;DHT22;3952;48.364;16.022;2022-08-21T00:50:49;18.70;99.90
7814;DHT22;3952;48.364;16.022;2022-08-21T00:53:17;18.70;99.90
7814;DHT22;3952;48.364;16.022;2022-08-21T00:55:47;18.70;99.90
7814;DHT22;3952;48.364;16.022;2022-08-21T00:58:15;18.70;99.90
7814;DHT22;3952;48.364;16.022;2022-08-21T01:00:44;18.70;99.90
7814;DHT22;3952;48.364;16.022;2022-08-21T01:03:16;18.70;99.90
7814;DHT22;3952;48.364;16.022;2022-08-21T01:05:44;18.70;99.90
7814;DHT22;3952;48.364;16.022;2022-08-21T01:08:13;18.70;99.90
7814;DHT22;3952;48.364;16.022;2022-08-21T01:10:41;18.70;99.90
7814;DHT22;3952;48.364;16.022;2022-08-21T01:13:11;18.70;99.90
7814;DHT22;3952;48.364;16.022;2022-08-21T01:15:43;18.70;99.90
7814;DHT22;3952;48.364;16.022;2022-08-21T01:18:13;18.60;99.90
7814;DHT22;3952;48.364;16.022;2022-08-21T01:20:43;18.60;99.90
7814;DHT22;3952;48.364;16.022;2022-08-21T01:23:12;18.60;99.90
7814;DHT22;3952;48.364;16.022;2022-08-21T01:25:40;18.60;99.90
7814;DHT22;3952;48.364;16.022;2022-08-21T01:28:12;18.60;99.90
7814;DHT22;3952;48.364;16.022;2022-08-21T01:30:42;18.50;99.90
7814;DHT22;3952;48.364;16.022;2022-08-21T01:33:10;18.50;99.90
7814;DHT22;3952;48.364;16.022;2022-08-21T01:35:37;18.40;99.90
7814;DHT22;3952;48.364;16.022;2022-08-21T01:38:05;18.40;99.90
7814;DHT22;3952;48.364;16.022;2022-08-21T01:40:34;18.30;99.90
7814;DHT22;3952;48.364;16.022;2022-08-21T01:43:01;18.30;99.90
7814;DHT22;3952;48.364;16.022;2022-08-21T01:45:28;18.30;99.90
7814;DHT22;3952;48.364;16.022;2022-08-21T01:47:55;18.30;99.90
7814;DHT22;3952;48.364;16.022;2022-08-21T01:50:24;18.20;99.90
7814;DHT22;3952;48.364;16.022;2022-08-21T01:52:51;18.30;99.90
7814;DHT22;3952;48.364;16.022;2022-08-21T01:55:19;18.20;99.90
7814;DHT22;3952;48.364;16.022;2022-08-21T01:57:48;18.20;99.90
7814;DHT22;3952;48.364;16.022;2022-08-21T02:00:19;18.20;99.90
7814;DHT22;3952;48.364;16.022;2022-08-21T02:02:49;18.10;99.90
7814;DHT22;3952;48.364;16.022;2022-08-21T02:05:17;18.10;99.90
7814;DHT22;3952;48.364;16.022;2022-08-21T02:07:48;18.10;99.90
7814;DHT22;3952;48.364;16.022;2022-08-21T02:10:18;18.10;99.90
7814;DHT22;3952;48.364;16.022;2022-08-21T02:12:45;18.10;99.90
7814;DHT22;3952;48.364;16.022;2022-08-21T02:15:14;18.00;99.90
7814;DHT22;3952;48.364;16.022;2022-08-21T02:17:43;18.00;99.90
7814;DHT22;3952;48.364;16.022;2022-08-21T02:20:16;18.00;99.90
7814;DHT22;3952;48.364;16.022;2022-08-21T02:22:44;18.00;99.90
7814;DHT22;3952;48.364;16.022;2022-08-21T02:25:11;17.90;99.90
7814;DHT22;3952;48.364;16.022;2022-08-21T02:27:39;18.00;99.90
7814;DHT22;3952;48.364;16.022;2022-08-21T02:30:10;17.90;99.90
7814;DHT22;3952;48.364;16.022;2022-08-21T02:32:39;17.90;99.90
7814;DHT22;3952;48.364;16.022;2022-08-21T02:35:08;17.90;99.90
7814;DHT22;3952;48.364;16.022;2022-08-21T02:37:43;17.90;99.90
7814;DHT22;3952;48.364;16.022;2022-08-21T02:40:11;17.90;99.90
7814;DHT22;3952;48.364;16.022;2022-08-21T02:42:39;17.90;99.90
7814;DHT22;3952;48.364;16.022;2022-08-21T02:45:07;17.90;99.90
7814;DHT22;3952;48.364;16.022;2022-08-21T02:47:35;17.90;99.90
7814;DHT22;3952;48.364;16.022;2022-08-21T02:50:04;17.90;99.90
7814;DHT22;3952;48.364;16.022;2022-08-21T02:52:32;17.90;99.90
7814;DHT22;3952;48.364;16.022;2022-08-21T02:55:00;17.80;99.90
7814;DHT22;3952;48.364;16.022;2022-08-21T02:57:28;17.80;99.90
7814;DHT22;3952;48.364;16.022;2022-08-21T02:59:57;17.80;99.90
7814;DHT22;3952;48.364;16.022;2022-08-21T03:02:24;17.80;99.90
7814;DHT22;3952;48.364;16.022;2022-08-21T03:04:51;17.80;99.90
7814;DHT22;3952;48.364;16.022;2022-08-21T03:07:20;17.80;99.90
7814;DHT22;3952;48.364;16.022;2022-08-21T03:09:47;17.80;99.90
7814;DHT22;3952;48.364;16.022;2022-08-21T03:12:14;17.80;99.90
7814;DHT22;3952;48.364;16.022;2022-08-21T03:14:41;17.80;99.90
7814;DHT22;3952;48.364;16.022;2022-08-21T03:17:09;17.80;99.90
7814;DHT22;3952;48.364;16.022;2022-08-21T03:19:36;17.80;99.90
7814;DHT22;3952;48.364;16.022;2022-08-21T03:22:05;17.80;99.90
7814;DHT22;3952;48.364;16.022;2022-08-21T03:24:33;17.80;99.90
7814;DHT22;3952;48.364;16.022;2022-08-21T03:27:01;17.80;99.90
7814;DHT22;3952;48.364;16.022;2022-08-21T03:29:28;17.70;99.90
7814;DHT22;3952;48.364;16.022;2022-08-21T03:31:55;17.70;99.90
7814;DHT22;3952;48.364;16.022;2022-08-21T03:34:22;17.70;99.90
7814;DHT22;3952;48.364;16.022;2022-08-21T03:36:49;17.70;99.90
7814;DHT22;3952;48.364;16.022;2022-08-21T03:39:17;17.70;99.90
7814;DHT22;3952;48.364;16.022;2022-08-21T03:41:46;17.70;99.90
7814;DHT22;3952;48.364;16.022;2022-08-21T03:44:14;17.70;99.90
7814;DHT22;3952;48.364;16.022;2022-08-21T03:46:41;17.70;99.90
7814;DHT22;3952;48.364;16.022;2022-08-21T03:49:08;17.70;99.90
7814;DHT22;3952;48.364;16.022;2022-08-21T03:51:35;17.70;99.90
7814;DHT22;3952;48.364;16.022;2022-08-21T03:54:03;17.70;99.90
7814;DHT22;3952;48.364;16.022;2022-08-21T03:56:30;17.70;99.90
7814;DHT22;3952;48.364;16.022;2022-08-21T03:58:59;17.70;99.90
7814;DHT22;3952;48.364;16.022;2022-08-21T04:01:28;17.60;99.90
7814;DHT22;3952;48.364;16.022;2022-08-21T04:03:55;17.70;99.90
7814;DHT22;3952;48.364;16.022;2022-08-21T04:06:22;17.70;99.90
7814;DHT22;3952;48.364;16.022;2022-08-21T04:08:49;17.70;99.90
7814;DHT22;3952;48.364;16.022;2022-08-21T04:11:16;17.70;99.90
7814;DHT22;3952;48.364;16.022;2022-08-21T04:13:43;17.70;99.90
7814;DHT22;3952;48.364;16.022;2022-08-21T04:16:13;17.70;99.90
7814;DHT22;3952;48.364;16.022;2022-08-21T04:18:41;17.70;99.90
7814;DHT22;3952;48.364;16.022;2022-08-21T04:21:10;17.70;99.90
7814;DHT22;3952;48.364;16.022;2022-08-21T04:23:38;17.60;99.90
7814;DHT22;3952;48.364;16.022;2022-08-21T04:26:05;17.70;99.90
7814;DHT22;3952;48.364;16.022;2022-08-21T04:28:33;17.60;99.90
7814;DHT22;3952;48.364;16.022;2022-08-21T04:31:00;17.60;99.90
7814;DHT22;3952;48.364;16.022;2022-08-21T04:33:29;17.60;99.90
7814;DHT22;3952;48.364;16.022;2022-08-21T04:35:56;17.60;99.90
7814;DHT22;3952;48.364;16.022;2022-08-21T04:38:23;17.60;99.90
7814;DHT22;3952;48.364;16.022;2022-08-21T04:40:51;17.60;99.90
7814;DHT22;3952;48.364;16.022;2022-08-21T04:43:19;17.60;99.90
7814;DHT22;3952;48.364;16.022;2022-08-21T04:45:50;17.60;99.90
7814;DHT22;3952;48.364;16.022;2022-08-21T04:48:20;17.60;99.90
7814;DHT22;3952;48.364;16.022;2022-08-21T04:50:52;17.60;99.90
7814;DHT22;3952;48.364;16.022;2022-08-21T04:53:26;17.60;99.90
7814;DHT22;3952;48.364;16.022;2022-08-21T04:56:00;17.60;99.90
7814;DHT22;3952;48.364;16.022;2022-08-21T04:58:28;17.60;99.90
7814;DHT22;3952;48.364;16.022;2022-08-21T05:01:00;17.60;99.90
7814;DHT22;3952;48.364;16.022;2022-08-21T05:03:29;17.60;99.90
7814;DHT22;3952;48.364;16.022;2022-08-21T05:05:58;17.60;99.90
7814;DHT22;3952;48.364;16.022;2022-08-21T05:08:27;17.70;99.90
7814;DHT22;3952;48.364;16.022;2022-08-21T05:10:54;17.70;99.90
7814;DHT22;3952;48.364;16.022;2022-08-21T05:13:22;17.70;99.90
7814;DHT22;3952;48.364;16.022;2022-08-21T05:15:49;17.70;99.90
7814;DHT22;3952;48.364;16.022;2022-08-21T05:18:16;17.70;99.90
7814;DHT22;3952;48.364;16.022;2022-08-21T05:20:43;17.70;99.90
7814;DHT22;3952;48.364;16.022;2022-08-21T05:23:14;17.70;99.90
7814;DHT22;3952;48.364;16.022;2022-08-21T05:25:41;17.70;99.90
7814;DHT22;3952;48.364;16.022;2022-08-21T05:28:09;17.70;99.90
7814;DHT22;3952;48.364;16.022;2022-08-21T05:30:39;17.70;99.90
7814;DHT22;3952;48.364;16.022;2022-08-21T05:33:07;17.70;99.90
7814;DHT22;3952;48.364;16.022;2022-08-21T05:35:34;17.70;99.90
7814;DHT22;3952;48.364;16.022;2022-08-21T05:38:02;17.80;99.90
7814;DHT22;3952;48.364;16.022;2022-08-21T05:40:32;17.80;99.90
7814;DHT22;3952;48.364;16.022;2022-08-21T05:42:59;17.80;99.90
7814;DHT22;3952;48.364;16.022;2022-08-21T05:45:29;17.80;99.90
7814;DHT22;3952;48.364;16.022;2022-08-21T05:47:57;17.80;99.90
7814;DHT22;3952;48.364;16.022;2022-08-21T05:50:24;17.80;99.90
7814;DHT22;3952;48.364;16.022;2022-08-21T05:52:51;17.90;99.90
7814;DHT22;3952;48.364;16.022;2022-08-21T05:55:19;17.90;99.90
7814;DHT22;3952;48.364;16.022;2022-08-21T05:57:47;17.90;99.90
7814;DHT22;3952;48.364;16.022;2022-08-21T06:00:16;17.90;99.90
7814;DHT22;3952;48.364;16.022;2022-08-21T06:02:43;18.00;99.90
7814;DHT22;3952;48.364;16.022;2022-08-21T06:05:10;18.00;99.90
7814;DHT22;3952;48.364;16.022;2022-08-21T06:07:38;18.00;99.90
7814;DHT22;3952;48.364;16.022;2022-08-21T06:10:07;18.00;99.90
7814;DHT22;3952;48.364;16.022;2022-08-21T06:12:34;18.10;99.90
7814;DHT22;3952;48.364;16.022;2022-08-21T06:15:04;18.10;99.90
7814;DHT22;3952;48.364;16.022;2022-08-21T06:17:31;18.10;99.90
7814;DHT22;3952;48.364;16.022;2022-08-21T06:19:58;18.10;99.90
7814;DHT22;3952;48.364;16.022;2022-08-21T06:22:25;18.20;99.90
7814;DHT22;3952;48.364;16.022;2022-08-21T06:24:52;18.20;99.90
7814;DHT22;3952;48.364;16.022;2022-08-21T06:27:20;18.20;99.90
7814;DHT22;3952;48.364;16.022;2022-08-21T06:29:47;18.20;99.90
7814;DHT22;3952;48.364;16.022;2022-08-21T06:32:15;18.20;99.90
7814;DHT22;3952;48.364;16.022;2022-08-21T06:34:43;18.30;99.90
7814;DHT22;3952;48.364;16.022;2022-08-21T06:37:10;18.30;99.90
7814;DHT22;3952;48.364;16.022;2022-08-21T06:39:38;18.30;99.90
7814;DHT22;3952;48.364;16.022;2022-08-21T06:42:05;18.30;99.90
7814;DHT22;3952;48.364;16.022;2022-08-21T06:44:32;18.30;99.90
7814;DHT22;3952;48.364;16.022;2022-08-21T06:46:59;18.30;99.90
7814;DHT22;3952;48.364;16.022;2022-08-21T06:49:28;18.30;99.90
7814;DHT22;3952;48.364;16.022;2022-08-21T06:51:55;18.40;99.90
7814;DHT22;3952;48.364;16.022;2022-08-21T06:54:22;18.40;99.90
7814;DHT22;3952;48.364;16.022;2022-08-21T06:56:49;18.40;99.90
7814;DHT22;3952;48.364;16.022;2022-08-21T06:59:17;18.40;99.90
7814;DHT22;3952;48.364;16.022;2022-08-21T07:01:44;18.50;99.90
7814;DHT22;3952;48.364;16.022;2022-08-21T07:04:11;18.50;99.90
7814;DHT22;3952;48.364;16.022;2022-08-21T07:06:40;18.50;99.90
7814;DHT22;3952;48.364;16.022;2022-08-21T07:09:07;18.50;99.90
7814;DHT22;3952;48.364;16.022;2022-08-21T07:11:36;18.50;99.90
7814;DHT22;3952;48.364;16.022;2022-08-21T07:14:04;18.50;99.90
7814;DHT22;3952;48.364;16.022;2022-08-21T07:16:31;18.50;99.90
7814;DHT22;3952;48.364;16.022;2022-08-21T07:18:59;18.60;99.90
7814;DHT22;3952;48.364;16.022;2022-08-21T07:21:26;18.60;99.90
7814;DHT22;3952;48.364;16.022;2022-08-21T07:23:55;18.60;99.90
7814;DHT22;3952;48.364;16.022;2022-08-21T07:26:23;18.60;99.90
7814;DHT22;3952;48.364;16.022;2022-08-21T07:28:52;18.60;99.90
7814;DHT22;3952;48.364;16.022;2022-08-21T07:31:22;18.50;99.90
7814;DHT22;3952;48.364;16.022;2022-08-21T07:33:50;18.60;99.90
7814;DHT22;3952;48.364;16.022;2022-08-21T07:36:18;18.60;99.90
7814;DHT22;3952;48.364;16.022;2022-08-21T07:38:45;18.60;99.90
7814;DHT22;3952;48.364;16.022;2022-08-21T07:41:17;18.60;99.90
7814;DHT22;3952;48.364;16.022;2022-08-21T07:43:45;18.60;99.90
7814;DHT22;3952;48.364;16.022;2022-08-21T07:46:13;18.70;99.90
7814;DHT22;3952;48.364;16.022;2022-08-21T07:48:40;18.70;99.90
7814;DHT22;3952;48.364;16.022;2022-08-21T07:51:10;18.70;99.90
7814;DHT22;3952;48.364;16.022;2022-08-21T07:53:39;18.70;99.90
7814;DHT22;3952;48.364;16.022;2022-08-21T07:56:07;18.80;99.90
7814;DHT22;3952;48.364;16.022;2022-08-21T07:58:38;18.80;99.90
7814;DHT22;3952;48.364;16.022;2022-08-21T08:01:06;18.80;99.90
7814;DHT22;3952;48.364;16.022;2022-08-21T08:03:33;18.80;99.90
7814;DHT22;3952;48.364;16.022;2022-08-21T08:06:01;18.80;99.90
7814;DHT22;3952;48.364;16.022;2022-08-21T08:08:30;18.80;99.90
7814;DHT22;3952;48.364;16.022;2022-08-21T08:10:58;18.80;99.90
7814;DHT22;3952;48.364;16.022;2022-08-21T08:13:27;18.80;99.90
7814;DHT22;3952;48.364;16.022;2022-08-21T08:15:56;18.80;99.90
7814;DHT22;3952;48.364;16.022;2022-08-21T08:18:23;18.80;99.90
7814;DHT22;3952;48.364;16.022;2022-08-21T08:20:51;18.80;99.90
7814;DHT22;3952;48.364;16.022;2022-08-21T08:23:18;18.80;99.90
7814;DHT22;3952;48.364;16.022;2022-08-21T08:25:45;18.80;99.90
7814;DHT22;3952;48.364;16.022;2022-08-21T08:28:12;18.80;99.90
7814;DHT22;3952;48.364;16.022;2022-08-21T08:30:39;18.80;99.90
7814;DHT22;3952;48.364;16.022;2022-08-21T08:33:09;18.80;99.90
7814;DHT22;3952;48.364;16.022;2022-08-21T08:35:36;18.80;99.90
7814;DHT22;3952;48.364;16.022;2022-08-21T08:38:04;18.90;99.90
7814;DHT22;3952;48.364;16.022;2022-08-21T08:40:37;18.90;99.90
7814;DHT22;3952;48.364;16.022;2022-08-21T08:43:05;18.90;99.90
7814;DHT22;3952;48.364;16.022;2022-08-21T08:45:36;18.90;99.90
7814;DHT22;3952;48.364;16.022;2022-08-21T08:48:07;18.90;99.90
7814;DHT22;3952;48.364;16.022;2022-08-21T08:50:41;19.00;99.90
7814;DHT22;3952;48.364;16.022;2022-08-21T08:53:14;19.00;99.90
7814;DHT22;3952;48.364;16.022;2022-08-21T08:55:44;19.00;99.90
7814;DHT22;3952;48.364;16.022;2022-08-21T08:58:16;18.90;99.90
7814;DHT22;3952;48.364;16.022;2022-08-21T09:00:47;18.90;99.90
7814;DHT22;3952;48.364;16.022;2022-08-21T09:03:16;18.90;99.90
7814;DHT22;3952;48.364;16.022;2022-08-21T09:05:49;18.90;99.90
7814;DHT22;3952;48.364;16.022;2022-08-21T09:08:41;19.00;99.90
7814;DHT22;3952;48.364;16.022;2022-08-21T09:11:15;19.00;99.90
7814;DHT22;3952;48.364;16.022;2022-08-21T09:13:50;19.00;99.90
7814;DHT22;3952;48.364;16.022;2022-08-21T09:16:30;19.00;99.90
7814;DHT22;3952;48.364;16.022;2022-08-21T09:19:07;19.10;99.90
7814;DHT22;3952;48.364;16.022;2022-08-21T09:21:50;19.10;99.90
7814;DHT22;3952;48.364;16.022;2022-08-21T09:24:26;19.10;99.90
7814;DHT22;3952;48.364;16.022;2022-08-21T09:27:02;19.20;99.90
7814;DHT22;3952;48.364;16.022;2022-08-21T09:29:35;19.20;99.90
7814;DHT22;3952;48.364;16.022;2022-08-21T09:32:08;19.20;99.90
7814;DHT22;3952;48.364;16.022;2022-08-21T09:34:36;19.30;99.90
7814;DHT22;3952;48.364;16.022;2022-08-21T09:37:16;19.30;99.90
7814;DHT22;3952;48.364;16.022;2022-08-21T09:39:44;19.30;99.90
7814;DHT22;3952;48.364;16.022;2022-08-21T09:42:22;19.30;99.90
7814;DHT22;3952;48.364;16.022;2022-08-21T09:45:07;19.40;99.90
7814;DHT22;3952;48.364;16.022;2022-08-21T09:47:35;19.40;99.90
7814;DHT22;3952;48.364;16.022;2022-08-21T09:50:11;19.50;99.90
7814;DHT22;3952;48.364;16.022;2022-08-21T09:52:46;19.60;99.90
7814;DHT22;3952;48.364;16.022;2022-08-21T09:55:21;19.60;99.90
7814;DHT22;3952;48.364;16.022;2022-08-21T09:58:08;19.70;99.90
7814;DHT22;3952;48.364;16.022;2022-08-21T10:00:36;19.70;99.90
7814;DHT22;3952;48.364;16.022;2022-08-21T10:03:15;19.80;99.90
7814;DHT22;3952;48.364;16.022;2022-08-21T10:05:56;19.80;99.90
7814;DHT22;3952;48.364;16.022;2022-08-21T10:08:27;19.80;99.90
7814;DHT22;3952;48.364;16.022;2022-08-21T10:10:57;19.90;99.90
7814;DHT22;3952;48.364;16.022;2022-08-21T10:13:40;19.90;99.90
7814;DHT22;3952;48.364;16.022;2022-08-21T10:16:19;19.90;99.90
7814;DHT22;3952;48.364;16.022;2022-08-21T10:19:12;19.80;99.90
7814;DHT22;3952;48.364;16.022;2022-08-21T10:21:54;19.60;99.90
7814;DHT22;3952;48.364;16.022;2022-08-21T10:24:31;19.50;99.90
7814;DHT22;3952;48.364;16.022;2022-08-21T10:27:09;19.40;99.90
7814;DHT22;3952;48.364;16.022;2022-08-21T10:29:46;19.30;99.90
7814;DHT22;3952;48.364;16.022;2022-08-21T10:32:27;19.30;99.90
7814;DHT22;3952;48.364;16.022;2022-08-21T10:35:02;19.20;99.90
7814;DHT22;3952;48.364;16.022;2022-08-21T10:37:45;19.20;99.90
7814;DHT22;3952;48.364;16.022;2022-08-21T10:40:22;19.20;99.90
7814;DHT22;3952;48.364;16.022;2022-08-21T10:43:02;19.20;99.90
7814;DHT22;3952;48.364;16.022;2022-08-21T10:45:42;19.20;99.90
7814;DHT22;3952;48.364;16.022;2022-08-21T10:48:18;19.30;99.90
7814;DHT22;3952;48.364;16.022;2022-08-21T10:50:52;19.30;99.90
7814;DHT22;3952;48.364;16.022;2022-08-21T10:53:51;19.20;99.90
7814;DHT22;3952;48.364;16.022;2022-08-21T10:56:25;19.20;99.90
7814;DHT22;3952;48.364;16.022;2022-08-21T10:59:20;19.20;99.90
7814;DHT22;3952;48.364;16.022;2022-08-21T11:01:54;19.20;99.90
7814;DHT22;3952;48.364;16.022;2022-08-21T11:04:29;19.20;99.90
7814;DHT22;3952;48.364;16.022;2022-08-21T11:07:03;19.20;99.90
7814;DHT22;3952;48.364;16.022;2022-08-21T11:09:32;19.20;99.90
7814;DHT22;3952;48.364;16.022;2022-08-21T11:12:06;19.20;99.90
7814;DHT22;3952;48.364;16.022;2022-08-21T11:14:45;19.20;99.90
7814;DHT22;3952;48.364;16.022;2022-08-21T11:17:18;19.20;99.90
7814;DHT22;3952;48.364;16.022;2022-08-21T11:19:52;19.20;99.90
7814;DHT22;3952;48.364;16.022;2022-08-21T11:22:26;19.20;99.90
7814;DHT22;3952;48.364;16.022;2022-08-21T11:24:58;19.20;99.90
7814;DHT22;3952;48.364;16.022;2022-08-21T11:27:33;19.30;99.90
7814;DHT22;3952;48.364;16.022;2022-08-21T11:30:04;19.30;99.90
7814;DHT22;3952;48.364;16.022;2022-08-21T11:32:53;19.40;99.90
7814;DHT22;3952;48.364;16.022;2022-08-21T11:35:33;19.50;99.90
7814;DHT22;3952;48.364;16.022;2022-08-21T11:38:16;19.50;99.90
7814;DHT22;3952;48.364;16.022;2022-08-21T11:41:10;19.60;99.90
7814;DHT22;3952;48.364;16.022;2022-08-21T11:43:43;19.60;99.90
7814;DHT22;3952;48.364;16.022;2022-08-21T11:46:28;19.70;99.90
7814;DHT22;3952;48.364;16.022;2022-08-21T11:49:06;19.70;99.90
7814;DHT22;3952;48.364;16.022;2022-08-21T11:51:39;19.80;99.90
7814;DHT22;3952;48.364;16.022;2022-08-21T11:54:13;19.80;99.90
7814;DHT22;3952;48.364;16.022;2022-08-21T11:56:45;19.80;99.90
7814;DHT22;3952;48.364;16.022;2022-08-21T11:59:19;19.80;99.90
7814;DHT22;3952;48.364;16.022;2022-08-21T12:01:49;19.80;99.90
7814;DHT22;3952;48.364;16.022;2022-08-21T12:04:25;19.80;99.90
7814;DHT22;3952;48.364;16.022;2022-08-21T12:06:53;19.80;99.90
7814;DHT22;3952;48.364;16.022;2022-08-21T12:09:31;19.90;99.90
7814;DHT22;3952;48.364;16.022;2022-08-21T12:12:03;19.90;99.90
7814;DHT22;3952;48.364;16.022;2022-08-21T12:14:39;20.00;99.90
7814;DHT22;3952;48.364;16.022;2022-08-21T12:17:16;20.00;99.90
7814;DHT22;3952;48.364;16.022;2022-08-21T12:19:44;20.00;99.90
7814;DHT22;3952;48.364;16.022;2022-08-21T12:22:13;20.00;99.90
7814;DHT22;3952;48.364;16.022;2022-08-21T12:24:43;20.00;99.90
7814;DHT22;3952;48.364;16.022;2022-08-21T12:27:26;20.00;99.90
7814;DHT22;3952;48.364;16.022;2022-08-21T12:29:59;19.90;99.90
7814;DHT22;3952;48.364;16.022;2022-08-21T12:32:29;19.90;99.90
7814;DHT22;3952;48.364;16.022;2022-08-21T12:35:02;20.00;99.90
7814;DHT22;3952;48.364;16.022;2022-08-21T12:37:38;20.00;99.90
7814;DHT22;3952;48.364;16.022;2022-08-21T12:40:13;20.10;99.90
7814;DHT22;3952;48.364;16.022;2022-08-21T12:42:49;20.10;99.90
7814;DHT22;3952;48.364;16.022;2022-08-21T12:45:22;20.10;99.90
7814;DHT22;3952;48.364;16.022;2022-08-21T12:47:55;20.10;99.90
7814;DHT22;3952;48.364;16.022;2022-08-21T12:50:29;20.00;99.90
7814;DHT22;3952;48.364;16.022;2022-08-21T12:53:03;19.90;99.90
7814;DHT22;3952;48.364;16.022;2022-08-21T12:55:33;19.90;99.90
7814;DHT22;3952;48.364;16.022;2022-08-21T12:58:01;19.90;99.90
7814;DHT22;3952;48.364;16.022;2022-08-21T13:00:30;20.00;99.90
7814;DHT22;3952;48.364;16.022;2022-08-21T13:02:57;19.90;99.90
7814;DHT22;3952;48.364;16.022;2022-08-21T13:05:30;20.00;99.90
7814;DHT22;3952;48.364;16.022;2022-08-21T13:08:02;20.00;99.90
7814;DHT22;3952;48.364;16.022;2022-08-21T13:10:32;20.00;99.90
7814;DHT22;3952;48.364;16.022;2022-08-21T13:13:02;20.00;99.90
7814;DHT22;3952;48.364;16.022;2022-08-21T13:15:34;20.10;99.90
7814;DHT22;3952;48.364;16.022;2022-08-21T13:18:03;20.10;99.90
7814;DHT22;3952;48.364;16.022;2022-08-21T13:20:33;20.20;99.90
7814;DHT22;3952;48.364;16.022;2022-08-21T13:23:02;20.20;99.90
7814;DHT22;3952;48.364;16.022;2022-08-21T13:25:35;20.20;99.90
7814;DHT22;3952;48.364;16.022;2022-08-21T13:28:06;20.30;99.90
7814;DHT22;3952;48.364;16.022;2022-08-21T13:30:39;20.30;99.90
7814;DHT22;3952;48.364;16.022;2022-08-21T13:33:11;20.30;99.90
7814;DHT22;3952;48.364;16.022;2022-08-21T13:35:49;20.40;99.90
7814;DHT22;3952;48.364;16.022;2022-08-21T13:38:18;20.40;99.90
7814;DHT22;3952;48.364;16.022;2022-08-21T13:40:49;20.40;99.90
7814;DHT22;3952;48.364;16.022;2022-08-21T13:43:21;20.50;99.90
7814;DHT22;3952;48.364;16.022;2022-08-21T13:45:52;20.50;99.90
7814;DHT22;3952;48.364;16.022;2022-08-21T13:48:20;20.50;99.90
7814;DHT22;3952;48.364;16.022;2022-08-21T13:50:49;20.60;99.90
7814;DHT22;3952;48.364;16.022;2022-08-21T13:53:23;20.60;99.90
7814;DHT22;3952;48.364;16.022;2022-08-21T13:55:50;20.60;99.90
7814;DHT22;3952;48.364;16.022;2022-08-21T13:58:25;20.60;99.90
7814;DHT22;3952;48.364;16.022;2022-08-21T14:00:55;20.70;99.90
7814;DHT22;3952;48.364;16.022;2022-08-21T14:03:30;20.70;99.90
7814;DHT22;3952;48.364;16.022;2022-08-21T14:05:58;20.70;99.90
7814;DHT22;3952;48.364;16.022;2022-08-21T14:08:31;20.70;99.90
7814;DHT22;3952;48.364;16.022;2022-08-21T14:10:59;20.70;99.90
7814;DHT22;3952;48.364;16.022;2022-08-21T14:13:35;20.70;99.90
7814;DHT22;3952;48.364;16.022;2022-08-21T14:16:15;20.70;99.90
7814;DHT22;3952;48.364;16.022;2022-08-21T14:18:52;20.70;99.90
7814;DHT22;3952;48.364;16.022;2022-08-21T14:21:32;20.70;99.90
7814;DHT22;3952;48.364;16.022;2022-08-21T14:24:06;20.80;99.90
7814;DHT22;3952;48.364;16.022;2022-08-21T14:26:36;20.80;99.90
7814;DHT22;3952;48.364;16.022;2022-08-21T14:29:08;20.80;99.90
7814;DHT22;3952;48.364;16.022;2022-08-21T14:31:37;20.80;99.90
7814;DHT22;3952;48.364;16.022;2022-08-21T14:34:04;20.80;99.90
7814;DHT22;3952;48.364;16.022;2022-08-21T14:36:31;20.80;99.90
7814;DHT22;3952;48.364;16.022;2022-08-21T14:38:59;20.70;99.90
7814;DHT22;3952;48.364;16.022;2022-08-21T14:41:28;20.70;99.90
7814;DHT22;3952;48.364;16.022;2022-08-21T14:43:56;20.70;99.90
7814;DHT22;3952;48.364;16.022;2022-08-21T14:46:25;20.70;99.90
7814;DHT22;3952;48.364;16.022;2022-08-21T14:48:55;20.70;99.90
7814;DHT22;3952;48.364;16.022;2022-08-21T14:51:22;20.70;99.90
7814;DHT22;3952;48.364;16.022;2022-08-21T14:53:50;20.60;99.90
7814;DHT22;3952;48.364;16.022;2022-08-21T14:56:17;20.60;99.90
7814;DHT22;3952;48.364;16.022;2022-08-21T14:58:47;20.60;99.90
7814;DHT22;3952;48.364;16.022;2022-08-21T15:01:16;20.60;99.90
7814;DHT22;3952;48.364;16.022;2022-08-21T15:03:45;20.60;99.90
7814;DHT22;3952;48.364;16.022;2022-08-21T15:06:16;20.50;99.90
7814;DHT22;3952;48.364;16.022;2022-08-21T15:08:46;20.60;99.90
7814;DHT22;3952;48.364;16.022;2022-08-21T15:11:19;20.50;99.90
7814;DHT22;3952;48.364;16.022;2022-08-21T15:13:47;20.50;99.90
7814;DHT22;3952;48.364;16.022;2022-08-21T15:16:18;20.50;99.90
7814;DHT22;3952;48.364;16.022;2022-08-21T15:18:45;20.50;99.90
7814;DHT22;3952;48.364;16.022;2022-08-21T15:21:12;20.50;99.90
7814;DHT22;3952;48.364;16.022;2022-08-21T15:23:41;20.50;99.90
7814;DHT22;3952;48.364;16.022;2022-08-21T15:26:08;20.50;99.90
7814;DHT22;3952;48.364;16.022;2022-08-21T15:28:36;20.50;99.90
7814;DHT22;3952;48.364;16.022;2022-08-21T15:31:04;20.50;99.90
7814;DHT22;3952;48.364;16.022;2022-08-21T15:33:31;20.50;99.90
7814;DHT22;3952;48.364;16.022;2022-08-21T15:35:59;20.50;99.90
7814;DHT22;3952;48.364;16.022;2022-08-21T15:38:26;20.50;99.90
7814;DHT22;3952;48.364;16.022;2022-08-21T15:40:54;20.60;99.90
7814;DHT22;3952;48.364;16.022;2022-08-21T15:43:24;20.50;99.90
7814;DHT22;3952;48.364;16.022;2022-08-21T15:45:52;20.60;99.90
7814;DHT22;3952;48.364;16.022;2022-08-21T15:48:20;20.50;99.90
7814;DHT22;3952;48.364;16.022;2022-08-21T15:50:47;20.60;99.90
7814;DHT22;3952;48.364;16.022;2022-08-21T15:53:15;20.60;99.90
7814;DHT22;3952;48.364;16.022;2022-08-21T15:55:42;20.60;99.90
7814;DHT22;3952;48.364;16.022;2022-08-21T15:58:15;20.60;99.90
7814;DHT22;3952;48.364;16.022;2022-08-21T16:00:43;20.60;99.90
7814;DHT22;3952;48.364;16.022;2022-08-21T16:03:15;20.60;99.90
7814;DHT22;3952;48.364;16.022;2022-08-21T16:05:45;20.60;99.90